Terminal Aerodrome Forecast
Issued by NWS

Home | Current Version | Previous Version | Text Only | Print | Product List | Glossary On
Versions: 1 2 3 4 5 6 7 8 9 10 11 12
818
FTUS45 KPSR 221720
TAFIPL
TAF
KIPL 221720Z 2218/2318 VRB05KT P6SM FEW140
     FM222000 20008KT P6SM SKC
     FM230400 26007KT P6SM SKC
     FM231000 19004KT P6SM SKC=

USA.gov is the U.S. government's official web portal to all federal, state and local government web resources and services.